Time;durP1;ratioP1;P1;durP2;ratioP2;P2;SDS_P1;SDS_P2;PMS_P1;PMS_P2;Temp;Humidity;BMP_temperature;BMP_pressure;BME280_temperature;BME280_humidity;BME280_pressure;Samples;Min_cycle;Max_cycle;Signal;HPM_P1;HPM_P2
2022/07/19 00:00:36;;;;;;;3.50;2.22;;;;;27.00;101753.00;;;;5046048;28;20214;-77
2022/07/19 00:03:04;;;;;;;1.98;1.77;;;;;27.00;101752.00;;;;5031360;28;20698;-76
2022/07/19 00:05:31;;;;;;;2.55;2.28;;;;;27.00;101747.00;;;;5030009;28;20184;-77
2022/07/19 00:07:59;;;;;;;2.83;2.20;;;;;26.90;101750.00;;;;5034616;28;20196;-77
2022/07/19 00:10:26;;;;;;;2.92;2.20;;;;;26.90;101742.00;;;;5037329;28;20198;-77
2022/07/19 00:12:53;;;;;;;2.47;1.95;;;;;26.90;101741.00;;;;5047745;28;20231;-77
2022/07/19 00:15:22;;;;;;;4.53;2.13;;;;;26.80;101744.00;;;;5035302;28;20673;-75
2022/07/19 00:17:50;;;;;;;2.35;2.00;;;;;26.80;101744.00;;;;5043482;28;20203;-76
2022/07/19 00:20:19;;;;;;;3.60;2.33;;;;;26.80;101745.00;;;;5038673;28;20200;-76
2022/07/19 00:22:47;;;;;;;4.38;2.58;;;;;26.70;101742.00;;;;5035650;28;20192;-76
2022/07/19 00:25:15;;;;;;;2.70;2.03;;;;;26.70;101742.00;;;;5038499;28;20196;-76
2022/07/19 00:27:42;;;;;;;3.92;2.70;;;;;26.70;101736.00;;;;5049365;28;20200;-76
2022/07/19 00:30:11;;;;;;;2.85;2.33;;;;;26.60;101736.00;;;;5032185;28;20199;-75
2022/07/19 00:32:40;;;;;;;2.35;2.15;;;;;26.60;101740.00;;;;5030200;28;20215;-76
2022/07/19 00:35:07;;;;;;;2.85;2.10;;;;;26.60;101736.00;;;;5034406;28;20199;-75
2022/07/19 00:37:35;;;;;;;4.00;2.25;;;;;26.60;101732.00;;;;5031860;28;20258;-76
2022/07/19 00:40:03;;;;;;;1.98;1.70;;;;;26.50;101730.00;;;;5045995;28;20197;-75
2022/07/19 00:42:30;;;;;;;2.80;2.50;;;;;26.50;101728.00;;;;5044480;28;20206;-76
2022/07/19 00:44:57;;;;;;;2.13;1.92;;;;;26.50;101727.00;;;;5034760;28;20673;-75
2022/07/19 00:47:25;;;;;;;3.05;1.80;;;;;26.40;101734.00;;;;5035406;28;20220;-76
2022/07/19 00:49:54;;;;;;;2.67;2.47;;;;;26.40;101730.00;;;;5031962;28;20208;-76
2022/07/19 00:52:22;;;;;;;3.00;2.17;;;;;26.40;101735.00;;;;5028949;28;20662;-76
2022/07/19 00:54:53;;;;;;;2.50;2.25;;;;;26.40;101736.00;;;;5029578;28;20196;-77
2022/07/19 00:57:20;;;;;;;2.33;1.98;;;;;26.30;101736.00;;;;5033640;28;20776;-76
2022/07/19 00:59:51;;;;;;;2.75;2.28;;;;;26.30;101740.00;;;;5045851;28;20207;-76
2022/07/19 01:02:19;;;;;;;7.68;2.45;;;;;26.30;101737.00;;;;5033397;28;20195;-76
2022/07/19 01:04:47;;;;;;;3.40;2.70;;;;;26.30;101732.00;;;;5036778;28;20597;-77
2022/07/19 01:07:18;;;;;;;2.42;2.22;;;;;26.20;101730.00;;;;5034130;28;20192;-76
2022/07/19 01:09:46;;;;;;;2.70;2.42;;;;;26.20;101735.00;;;;5045192;28;20200;-77
2022/07/19 01:12:13;;;;;;;2.97;2.55;;;;;26.20;101729.00;;;;5043569;28;20223;-76
2022/07/19 01:14:41;;;;;;;4.05;2.70;;;;;26.20;101734.00;;;;5040787;28;20210;-76
2022/07/19 01:17:08;;;;;;;2.95;2.33;;;;;26.10;101736.00;;;;5034527;28;20709;-76
2022/07/19 01:19:35;;;;;;;3.70;2.25;;;;;26.10;101731.00;;;;5032995;28;20204;-77
2022/07/19 01:22:04;;;;;;;5.50;2.25;;;;;26.10;101736.00;;;;5028300;28;20559;-76
2022/07/19 01:24:31;;;;;;;3.67;3.25;;;;;26.10;101732.00;;;;5044189;28;20207;-76
2022/07/19 01:26:58;;;;;;;4.25;2.40;;;;;26.10;101731.00;;;;5042189;28;20211;-76
2022/07/19 01:29:26;;;;;;;3.92;2.80;;;;;26.10;101733.00;;;;5046967;28;20199;-76
2022/07/19 01:31:53;;;;;;;3.78;2.95;;;;;26.00;101731.00;;;;5042075;28;20580;-76
2022/07/19 01:34:21;;;;;;;3.85;2.75;;;;;26.00;101727.00;;;;5027981;28;20390;-75
2022/07/19 01:36:48;;;;;;;3.72;2.72;;;;;26.00;101719.00;;;;5030101;28;20224;-75
2022/07/19 01:39:16;;;;;;;2.97;2.63;;;;;26.00;101730.00;;;;5035523;28;20196;-76
2022/07/19 01:41:44;;;;;;;3.97;2.40;;;;;26.00;101726.00;;;;5028812;28;20222;-76
2022/07/19 01:44:11;;;;;;;4.20;2.72;;;;;25.90;101726.00;;;;5031426;28;20196;-76
2022/07/19 01:46:38;;;;;;;2.63;2.03;;;;;25.90;101720.00;;;;5042815;28;20211;-77
2022/07/19 01:49:06;;;;;;;3.20;2.40;;;;;25.90;101726.00;;;;5029473;28;20666;-77
2022/07/19 01:51:34;;;;;;;2.65;2.45;;;;;25.90;101722.00;;;;5046396;28;20195;-76
2022/07/19 01:54:02;;;;;;;2.78;2.28;;;;;25.90;101724.00;;;;5040904;28;20199;-77
2022/07/19 01:56:30;;;;;;;2.20;2.00;;;;;25.80;101722.00;;;;5040497;28;20239;-77
2022/07/19 01:58:57;;;;;;;2.97;2.53;;;;;25.80;101719.00;;;;5033046;28;20234;-77
2022/07/19 02:01:25;;;;;;;3.03;2.28;;;;;25.80;101721.00;;;;5032871;28;20757;-76
2022/07/19 02:03:52;;;;;;;4.32;2.53;;;;;25.80;101721.00;;;;5028439;28;20214;-75
2022/07/19 02:06:19;;;;;;;1.95;1.70;;;;;25.80;101721.00;;;;5031173;28;20200;-75
2022/07/19 02:08:46;;;;;;;4.30;2.40;;;;;25.80;101711.00;;;;5028161;28;20201;-78
2022/07/19 02:14:00;;;;;;;2.75;2.08;;;;;25.70;101705.00;;;;5028216;28;20211;-76
2022/07/19 02:16:28;;;;;;;3.25;2.25;;;;;25.70;101701.00;;;;5028234;28;20220;-76
2022/07/19 02:18:55;;;;;;;2.45;2.22;;;;;25.70;101699.00;;;;5027916;28;20215;-76
2022/07/19 02:21:22;;;;;;;3.20;2.25;;;;;25.70;101697.00;;;;5043590;28;20202;-77
2022/07/19 02:23:49;;;;;;;2.72;1.92;;;;;25.60;101694.00;;;;5028030;28;20199;-76
2022/07/19 02:26:17;;;;;;;2.47;2.10;;;;;25.60;101688.00;;;;5039940;28;20217;-76
2022/07/19 02:28:44;;;;;;;2.88;2.20;;;;;25.60;101696.00;;;;5042541;28;20214;-76
2022/07/19 02:31:13;;;;;;;2.33;2.13;;;;;25.60;101693.00;;;;5028926;28;20200;-77
2022/07/19 02:33:40;;;;;;;2.42;2.00;;;;;25.60;101688.00;;;;5027149;28;20208;-75
2022/07/19 02:36:08;;;;;;;2.40;2.20;;;;;25.60;101687.00;;;;5028231;28;20199;-76
2022/07/19 02:38:36;;;;;;;3.90;2.10;;;;;25.50;101685.00;;;;5029522;28;20227;-76
2022/07/19 02:41:07;;;;;;;2.95;2.38;;;;;25.50;101689.00;;;;5030559;28;20211;-76
2022/07/19 02:43:34;;;;;;;3.05;2.42;;;;;25.50;101681.00;;;;5032627;28;20198;-76
2022/07/19 02:46:01;;;;;;;2.67;2.10;;;;;25.50;101684.00;;;;5032001;28;20220;-75
2022/07/19 02:48:30;;;;;;;4.03;2.15;;;;;25.50;101682.00;;;;5035811;28;20693;-75
2022/07/19 02:50:57;;;;;;;4.32;2.30;;;;;25.50;101679.00;;;;5032983;28;20215;-76
2022/07/19 02:53:25;;;;;;;3.42;2.50;;;;;25.50;101684.00;;;;5030784;28;20196;-76
2022/07/19 02:55:52;;;;;;;2.45;2.17;;;;;25.50;101683.00;;;;5036677;28;20211;-75
2022/07/19 02:58:19;;;;;;;3.55;2.55;;;;;25.50;101686.00;;;;5030462;28;20236;-76
2022/07/19 03:00:47;;;;;;;4.18;2.15;;;;;25.50;101682.00;;;;5031771;28;20456;-76
2022/07/19 03:06:01;;;;;;;2.38;2.10;;;;;25.40;101682.00;;;;5030354;28;20202;-77
2022/07/19 03:08:28;;;;;;;2.33;2.10;;;;;25.40;101677.00;;;;5030346;28;20201;-77
2022/07/19 03:10:55;;;;;;;4.07;2.08;;;;;25.40;101683.00;;;;5030731;28;20200;-77
2022/07/19 03:13:26;;;;;;;2.95;2.40;;;;;25.30;101686.00;;;;5029833;28;20200;-77
2022/07/19 03:15:53;;;;;;;2.50;1.98;;;;;25.40;101677.00;;;;5046957;28;20204;-76
2022/07/19 03:18:20;;;;;;;4.05;2.05;;;;;25.40;101682.00;;;;5037904;28;20606;-76
2022/07/19 03:20:48;;;;;;;3.30;1.95;;;;;25.30;101678.00;;;;5037842;28;20204;-76
2022/07/19 03:23:16;;;;;;;4.13;2.17;;;;;25.30;101680.00;;;;5050322;28;20192;-77
2022/07/19 03:25:47;;;;;;;2.38;1.98;;;;;25.30;101681.00;;;;5043412;28;20193;-76
2022/07/19 03:28:14;;;;;;;2.15;1.77;;;;;25.30;101675.00;;;;5033329;28;20200;-76
2022/07/19 03:30:41;;;;;;;2.50;2.30;;;;;25.30;101672.00;;;;5040120;28;20195;-76
2022/07/19 03:33:09;;;;;;;3.88;2.22;;;;;25.30;101673.00;;;;5048084;28;20203;-77
2022/07/19 03:35:36;;;;;;;3.15;2.20;;;;;25.30;101677.00;;;;5032483;28;20195;-77
2022/07/19 03:38:03;;;;;;;2.53;2.30;;;;;25.30;101677.00;;;;5042249;28;20226;-75
2022/07/19 03:40:32;;;;;;;2.63;2.03;;;;;25.30;101673.00;;;;5049448;28;20196;-76
2022/07/19 03:42:59;;;;;;;2.35;1.90;;;;;25.30;101674.00;;;;5035584;28;20697;-76
2022/07/19 03:45:27;;;;;;;2.90;2.05;;;;;25.30;101677.00;;;;5036213;28;20201;-77
2022/07/19 03:47:54;;;;;;;3.10;1.85;;;;;25.30;101679.00;;;;5030009;28;20201;-76
2022/07/19 03:50:21;;;;;;;2.80;1.95;;;;;25.20;101672.00;;;;5046809;28;20207;-77
2022/07/19 03:52:49;;;;;;;3.80;1.92;;;;;25.20;101670.00;;;;5034177;28;20560;-76
2022/07/19 03:55:16;;;;;;;3.63;2.50;;;;;25.20;101670.00;;;;5036825;28;20589;-75
2022/07/19 03:57:45;;;;;;;2.30;2.08;;;;;25.20;101682.00;;;;5038445;28;20239;-76
2022/07/19 04:00:13;;;;;;;2.90;2.20;;;;;25.20;101682.00;;;;5037951;28;20195;-76
2022/07/19 04:02:40;;;;;;;3.13;2.30;;;;;25.20;101673.00;;;;5035812;28;20577;-75
2022/07/19 04:05:08;;;;;;;3.22;2.13;;;;;25.20;101683.00;;;;5032930;28;20769;-76
2022/07/19 04:07:36;;;;;;;5.38;2.10;;;;;25.20;101673.00;;;;5029477;28;20726;-77
2022/07/19 04:10:04;;;;;;;4.10;2.60;;;;;25.20;101679.00;;;;5041669;28;20192;-77
2022/07/19 04:12:31;;;;;;;3.63;2.15;;;;;25.20;101672.00;;;;5028449;28;20266;-77
2022/07/19 04:15:00;;;;;;;2.53;2.15;;;;;25.20;101663.00;;;;5035343;28;20211;-77
2022/07/19 04:17:28;;;;;;;2.40;1.98;;;;;25.20;101670.00;;;;5032068;28;20231;-77
2022/07/19 04:19:55;;;;;;;2.00;1.80;;;;;25.20;101668.00;;;;5041809;28;20199;-76
2022/07/19 04:22:23;;;;;;;5.00;2.25;;;;;25.20;101676.00;;;;5034187;28;20196;-76
2022/07/19 04:24:51;;;;;;;3.15;2.28;;;;;25.20;101671.00;;;;5032624;28;20220;-76
2022/07/19 04:27:19;;;;;;;3.05;2.10;;;;;25.20;101678.00;;;;5039424;28;20233;-76
2022/07/19 04:29:46;;;;;;;2.03;1.70;;;;;25.20;101676.00;;;;5032979;28;20198;-76
2022/07/19 04:32:15;;;;;;;2.20;1.90;;;;;25.20;101675.00;;;;5045344;28;20199;-76
2022/07/19 04:34:42;;;;;;;2.78;2.25;;;;;25.30;101670.00;;;;5040410;28;20255;-76
2022/07/19 04:37:10;;;;;;;2.67;2.40;;;;;25.30;101676.00;;;;5031957;28;20224;-77
2022/07/19 04:39:37;;;;;;;5.28;2.05;;;;;25.30;101672.00;;;;5035259;28;20200;-77
2022/07/19 04:42:04;;;;;;;2.10;1.90;;;;;25.30;101675.00;;;;5049180;28;20200;-77
2022/07/19 04:44:32;;;;;;;5.53;3.20;;;;;25.30;101673.00;;;;5044356;28;20197;-77
2022/07/19 04:47:01;;;;;;;4.18;2.10;;;;;25.30;101673.00;;;;5031196;28;20231;-77
2022/07/19 04:49:30;;;;;;;2.70;1.85;;;;;25.40;101671.00;;;;5031178;28;20211;-77
2022/07/19 04:51:58;;;;;;;2.08;1.88;;;;;25.40;101667.00;;;;5028648;28;20208;-77
2022/07/19 04:54:26;;;;;;;3.03;2.30;;;;;25.50;101660.00;;;;5028672;28;20192;-77
2022/07/19 04:56:53;;;;;;;3.45;2.25;;;;;25.50;101669.00;;;;5031852;28;20224;-77
2022/07/19 04:59:21;;;;;;;2.90;2.03;;;;;25.50;101668.00;;;;5043855;28;20200;-77
2022/07/19 05:01:48;;;;;;;2.35;2.15;;;;;25.60;101670.00;;;;5034297;28;20223;-77
2022/07/19 05:04:15;;;;;;;3.05;2.35;;;;;25.60;101664.00;;;;5028187;28;20207;-77
2022/07/19 05:06:45;;;;;;;3.65;2.45;;;;;25.60;101667.00;;;;5042781;28;20200;-78
2022/07/19 05:09:13;;;;;;;3.33;2.05;;;;;25.70;101665.00;;;;5030134;28;20200;-76
2022/07/19 05:11:40;;;;;;;2.25;2.05;;;;;25.70;101665.00;;;;5037987;28;20192;-76
2022/07/19 05:14:08;;;;;;;3.53;2.15;;;;;25.80;101658.00;;;;5032543;28;20195;-77
2022/07/19 05:16:35;;;;;;;3.15;2.25;;;;;25.80;101665.00;;;;5028649;28;20208;-76
2022/07/19 05:19:03;;;;;;;2.05;1.88;;;;;25.90;101659.00;;;;5039256;28;20223;-76
2022/07/19 05:21:30;;;;;;;2.75;2.33;;;;;26.00;101658.00;;;;5028324;28;20567;-77
2022/07/19 05:23:59;;;;;;;2.67;2.45;;;;;26.00;101661.00;;;;5028814;28;20215;-77
2022/07/19 05:26:26;;;;;;;2.78;2.00;;;;;26.10;101655.00;;;;5028016;28;20204;-77
2022/07/19 05:28:54;;;;;;;2.38;2.17;;;;;26.20;101659.00;;;;5044863;28;20203;-76
2022/07/19 05:31:21;;;;;;;3.25;2.47;;;;;26.30;101659.00;;;;5028690;28;20204;-77
2022/07/19 05:33:48;;;;;;;5.80;2.03;;;;;26.30;101663.00;;;;5028433;28;20196;-77
2022/07/19 05:36:15;;;;;;;2.70;2.08;;;;;26.40;101663.00;;;;5029137;28;20188;-77
2022/07/19 05:38:43;;;;;;;3.70;2.40;;;;;26.50;101663.00;;;;5048340;28;20239;-76
2022/07/19 05:41:12;;;;;;;4.40;2.53;;;;;26.50;101657.00;;;;5047408;28;20195;-76
2022/07/19 05:43:40;;;;;;;5.97;2.60;;;;;26.60;101662.00;;;;5034298;28;20208;-76
2022/07/19 05:46:08;;;;;;;2.05;1.85;;;;;26.70;101659.00;;;;5040462;28;20609;-76
2022/07/19 05:48:35;;;;;;;4.25;1.83;;;;;26.80;101658.00;;;;5030218;28;20214;-76
2022/07/19 05:51:03;;;;;;;2.92;1.98;;;;;26.90;101663.00;;;;5041742;28;20204;-76
2022/07/19 05:53:30;;;;;;;4.07;2.13;;;;;27.00;101672.00;;;;5037555;28;20204;-76
2022/07/19 05:56:00;;;;;;;2.00;1.63;;;;;27.00;101670.00;;;;5032643;28;20575;-77
2022/07/19 05:58:29;;;;;;;2.42;1.83;;;;;27.10;101664.00;;;;5026934;28;20223;-77
2022/07/19 06:03:41;;;;;;;2.00;1.58;;;;;27.30;101672.00;;;;5037606;28;20310;-77
2022/07/19 06:06:08;;;;;;;3.70;1.83;;;;;27.40;101676.00;;;;5027734;28;20200;-77
2022/07/19 06:08:36;;;;;;;2.15;1.95;;;;;27.50;101667.00;;;;5038141;28;20952;-77
2022/07/19 06:11:03;;;;;;;3.65;2.10;;;;;27.60;101663.00;;;;5028195;28;20196;-77
2022/07/19 06:13:32;;;;;;;3.25;2.15;;;;;27.70;101674.00;;;;5028215;28;20193;-77
2022/07/19 06:16:00;;;;;;;4.40;1.80;;;;;27.80;101669.00;;;;5030857;28;20591;-77
2022/07/19 06:18:30;;;;;;;2.20;1.70;;;;;27.90;101669.00;;;;5030982;28;20231;-77
2022/07/19 06:20:57;;;;;;;4.60;1.88;;;;;28.00;101667.00;;;;5032748;28;20230;-77
2022/07/19 06:23:25;;;;;;;2.70;2.10;;;;;28.10;101672.00;;;;5035523;28;20192;-77
2022/07/19 06:25:53;;;;;;;2.15;1.95;;;;;28.20;101664.00;;;;5040406;28;20207;-76
2022/07/19 06:28:20;;;;;;;4.20;1.90;;;;;28.30;101662.00;;;;5049253;28;20195;-77
2022/07/19 06:30:49;;;;;;;2.55;2.03;;;;;28.40;101666.00;;;;5044454;28;20196;-76
2022/07/19 06:33:16;;;;;;;2.20;1.73;;;;;28.60;101667.00;;;;5035857;28;20200;-77
2022/07/19 06:35:43;;;;;;;2.55;2.05;;;;;28.70;101663.00;;;;5036836;28;20204;-76
2022/07/19 06:38:11;;;;;;;2.90;2.13;;;;;28.80;101669.00;;;;5035118;28;20235;-76
2022/07/19 06:40:38;;;;;;;3.42;2.33;;;;;28.90;101665.00;;;;5033923;28;20635;-77
2022/07/19 06:43:06;;;;;;;4.82;3.08;;;;;29.00;101665.00;;;;5037390;28;20206;-77
2022/07/19 06:45:36;;;;;;;2.90;2.20;;;;;29.10;101665.00;;;;5035380;28;20208;-75
2022/07/19 06:48:06;;;;;;;2.92;1.92;;;;;29.30;101670.00;;;;5045230;28;20188;-78
2022/07/19 06:50:34;;;;;;;5.10;2.10;;;;;29.40;101668.00;;;;5042874;28;20196;-78
2022/07/19 06:53:01;;;;;;;4.55;2.10;;;;;29.50;101673.00;;;;5041944;28;20205;-76
2022/07/19 06:55:29;;;;;;;2.90;1.65;;;;;29.70;101672.00;;;;5043202;28;20201;-77
2022/07/19 06:57:57;;;;;;;5.90;2.60;;;;;29.80;101665.00;;;;5029815;28;20235;-75
2022/07/19 07:00:24;;;;;;;2.33;1.80;;;;;29.90;101662.00;;;;5047160;28;20207;-76
2022/07/19 07:02:52;;;;;;;2.85;2.38;;;;;30.10;101660.00;;;;5037950;28;20235;-76
2022/07/19 07:05:20;;;;;;;4.20;2.17;;;;;30.20;101663.00;;;;5038037;28;20197;-76
2022/07/19 07:07:51;;;;;;;2.95;1.77;;;;;30.30;101668.00;;;;5033104;28;20211;-76
2022/07/19 07:10:18;;;;;;;2.28;1.73;;;;;30.40;101669.00;;;;5045940;28;20208;-75
2022/07/19 07:12:46;;;;;;;4.00;1.75;;;;;30.60;101667.00;;;;5032969;28;20215;-75
2022/07/19 07:15:13;;;;;;;2.75;1.90;;;;;30.70;101668.00;;;;5038386;28;20219;-76
2022/07/19 07:17:41;;;;;;;3.03;2.17;;;;;30.80;101662.00;;;;5041225;28;20223;-75
2022/07/19 07:20:10;;;;;;;6.25;1.73;;;;;30.90;101664.00;;;;5041921;28;20667;-75
2022/07/19 07:22:39;;;;;;;2.78;2.08;;;;;31.00;101663.00;;;;5037140;28;20201;-75
2022/07/19 07:25:07;;;;;;;2.08;1.75;;;;;31.20;101656.00;;;;5045545;28;20234;-75
2022/07/19 07:27:34;;;;;;;2.95;2.25;;;;;31.30;101655.00;;;;5029617;28;20208;-76
2022/07/19 07:30:02;;;;;;;3.83;2.50;;;;;31.40;101656.00;;;;5048443;28;20203;-76
2022/07/19 07:32:29;;;;;;;2.75;2.08;;;;;31.50;101659.00;;;;5035851;28;20203;-77
2022/07/19 07:34:56;;;;;;;7.95;2.30;;;;;31.60;101663.00;;;;5047239;28;20211;-76
2022/07/19 07:37:26;;;;;;;5.07;2.20;;;;;31.70;101662.00;;;;5043193;28;20196;-76
2022/07/19 07:39:54;;;;;;;3.35;2.60;;;;;31.80;101659.00;;;;5047019;28;20222;-76
2022/07/19 07:42:24;;;;;;;3.22;2.53;;;;;32.00;101660.00;;;;5036617;28;20200;-76
2022/07/19 07:44:52;;;;;;;4.03;2.13;;;;;32.10;101657.00;;;;5030113;28;20288;-76
2022/07/19 07:47:19;;;;;;;3.38;2.35;;;;;32.20;101659.00;;;;5033371;28;20663;-76
2022/07/19 07:49:46;;;;;;;4.93;2.42;;;;;32.30;101657.00;;;;5030084;28;20192;-76
2022/07/19 07:52:13;;;;;;;5.13;2.28;;;;;32.40;101661.00;;;;5038188;28;20762;-76
2022/07/19 07:54:41;;;;;;;3.53;2.40;;;;;32.60;101658.00;;;;5032412;28;20567;-77
2022/07/19 07:57:09;;;;;;;3.50;2.40;;;;;32.70;101657.00;;;;5040686;28;20220;-76
2022/07/19 07:59:37;;;;;;;3.20;2.67;;;;;32.80;101661.00;;;;5029443;28;20328;-76
2022/07/19 08:02:04;;;;;;;3.65;2.03;;;;;32.90;101662.00;;;;5029757;28;20196;-76
2022/07/19 08:04:32;;;;;;;3.63;2.13;;;;;33.00;101667.00;;;;5029953;28;20295;-75
2022/07/19 08:06:59;;;;;;;5.15;2.42;;;;;33.10;101659.00;;;;5029595;28;20254;-76
2022/07/19 08:09:26;;;;;;;4.95;2.20;;;;;33.30;101659.00;;;;5040940;28;20199;-76
2022/07/19 08:11:53;;;;;;;6.68;2.22;;;;;33.40;101664.00;;;;5049439;28;20205;-76
2022/07/19 08:14:22;;;;;;;2.13;1.77;;;;;33.50;101656.00;;;;5049626;28;20962;-76
2022/07/19 08:16:50;;;;;;;4.22;2.35;;;;;33.60;101662.00;;;;5049824;28;20576;-76
2022/07/19 08:19:17;;;;;;;2.97;1.73;;;;;33.70;101663.00;;;;5043581;28;20231;-77
2022/07/19 08:21:44;;;;;;;4.13;2.05;;;;;33.80;101654.00;;;;5031909;28;20207;-76
2022/07/19 08:24:12;;;;;;;5.65;2.42;;;;;33.90;101657.00;;;;5029128;28;20192;-76
2022/07/19 08:26:39;;;;;;;5.10;2.30;;;;;34.10;101655.00;;;;5031324;28;20198;-76
2022/07/19 08:29:07;;;;;;;2.80;2.17;;;;;34.20;101657.00;;;;5031500;28;20200;-76
2022/07/19 08:31:36;;;;;;;3.83;2.75;;;;;34.30;101660.00;;;;5031128;28;20202;-76
2022/07/19 08:34:03;;;;;;;2.70;2.20;;;;;34.40;101660.00;;;;5035535;28;20301;-76
2022/07/19 08:36:30;;;;;;;2.72;2.22;;;;;34.50;101660.00;;;;5044505;28;20291;-76
2022/07/19 08:38:58;;;;;;;4.68;2.50;;;;;34.60;101660.00;;;;5045646;28;20230;-76
2022/07/19 08:41:25;;;;;;;3.60;2.22;;;;;34.70;101655.00;;;;5029263;28;20207;-76
2022/07/19 08:43:53;;;;;;;3.08;2.50;;;;;34.80;101650.00;;;;5029754;28;20539;-76
2022/07/19 08:46:21;;;;;;;3.97;2.22;;;;;34.80;101652.00;;;;5029163;28;20219;-77
2022/07/19 08:48:50;;;;;;;3.88;2.83;;;;;34.90;101649.00;;;;5029804;28;20203;-76
2022/07/19 08:51:21;;;;;;;6.10;2.40;;;;;35.00;101654.00;;;;5032360;28;20195;-76
2022/07/19 08:53:50;;;;;;;4.95;2.33;;;;;35.10;101649.00;;;;5039398;28;20207;-76
2022/07/19 08:59:04;;;;;;;3.35;2.10;;;;;35.30;101643.00;;;;5029664;28;20231;-76
2022/07/19 09:01:31;;;;;;;4.63;2.15;;;;;35.40;101640.00;;;;5037991;28;20199;-76
2022/07/19 09:04:11;;;;;;;3.40;2.40;;;;;35.40;101641.00;;;;5049077;28;20257;-76
2022/07/19 09:06:40;;;;;;;3.67;2.63;;;;;35.60;101645.00;;;;5048734;28;20187;-76
2022/07/19 09:09:07;;;;;;;3.45;2.35;;;;;35.70;101652.00;;;;5047298;28;20210;-77
2022/07/19 09:11:36;;;;;;;5.05;2.60;;;;;35.80;101645.00;;;;5033929;28;20238;-76
2022/07/19 09:14:08;;;;;;;3.88;2.55;;;;;35.90;101639.00;;;;5048807;28;20203;-76
2022/07/19 09:16:57;;;;;;;3.63;2.00;;;;;35.90;101645.00;;;;5049284;28;20191;-77
2022/07/19 09:19:27;;;;;;;3.53;2.33;;;;;36.20;101643.00;;;;5040611;28;20814;-77
2022/07/19 09:21:57;;;;;;;6.38;2.42;;;;;36.30;101637.00;;;;5028736;28;20211;-76
2022/07/19 09:24:26;;;;;;;5.03;2.10;;;;;36.40;101641.00;;;;5028705;28;20204;-76
2022/07/19 09:27:02;;;;;;;3.90;2.28;;;;;36.50;101637.00;;;;5030450;28;20216;-77
2022/07/19 09:29:30;;;;;;;4.47;2.17;;;;;36.60;101639.00;;;;5029433;28;20202;-76
2022/07/19 09:32:06;;;;;;;7.43;2.33;;;;;36.70;101626.00;;;;5029095;28;20760;-76
2022/07/19 09:34:37;;;;;;;4.55;2.60;;;;;36.90;101630.00;;;;5028818;28;20200;-76
2022/07/19 09:37:16;;;;;;;3.83;2.22;;;;;36.90;101633.00;;;;5029104;28;20231;-76
2022/07/19 09:39:45;;;;;;;3.97;2.13;;;;;37.10;101632.00;;;;5029069;28;20425;-76
2022/07/19 09:42:15;;;;;;;2.28;1.90;;;;;37.10;101623.00;;;;5033299;28;20249;-76
2022/07/19 09:44:43;;;;;;;6.65;2.30;;;;;37.20;101633.00;;;;5038827;28;20199;-76
2022/07/19 09:47:11;;;;;;;6.82;2.20;;;;;37.40;101633.00;;;;5028478;28;20219;-77
2022/07/19 09:49:40;;;;;;;3.65;2.53;;;;;37.50;101629.00;;;;5027916;28;20208;-77
2022/07/19 09:52:10;;;;;;;4.97;2.50;;;;;37.50;101623.00;;;;5027750;28;20207;-77
2022/07/19 09:54:42;;;;;;;2.15;1.95;;;;;37.60;101626.00;;;;5028698;28;20946;-77
2022/07/19 09:57:10;;;;;;;1.95;1.60;;;;;37.80;101616.00;;;;5027793;28;20661;-77
2022/07/19 09:59:46;;;;;;;2.63;2.00;;;;;37.90;101615.00;;;;5030882;28;20647;-76
2022/07/19 10:02:14;;;;;;;3.75;1.95;;;;;38.00;101612.00;;;;5033383;28;20203;-77
2022/07/19 10:04:44;;;;;;;3.90;1.77;;;;;38.10;101613.00;;;;5040890;28;20199;-77
2022/07/19 10:07:13;;;;;;;2.25;1.77;;;;;38.10;101620.00;;;;5035663;28;20198;-76
2022/07/19 10:09:41;;;;;;;2.08;1.80;;;;;38.20;101608.00;;;;5034686;28;20199;-76
2022/07/19 10:12:08;;;;;;;3.20;2.08;;;;;38.30;101606.00;;;;5028247;28;20195;-76
2022/07/19 10:14:38;;;;;;;4.18;1.73;;;;;38.30;101596.00;;;;5028050;28;20203;-76
2022/07/19 10:17:22;;;;;;;5.05;1.95;;;;;38.30;101605.00;;;;5027452;28;20211;-76
2022/07/19 10:19:51;;;;;;;5.05;1.80;;;;;38.50;101604.00;;;;5040280;28;20216;-76
2022/07/19 10:22:23;;;;;;;2.22;1.50;;;;;38.60;101600.00;;;;5027561;28;20211;-77
2022/07/19 10:24:53;;;;;;;3.03;1.75;;;;;38.70;101597.00;;;;5028245;28;20735;-77
2022/07/19 10:27:37;;;;;;;2.13;1.70;;;;;38.70;101591.00;;;;5027592;28;20575;-77
2022/07/19 10:30:23;;;;;;;2.25;1.42;;;;;38.80;101591.00;;;;5027845;28;20226;-77
2022/07/19 10:32:52;;;;;;;2.95;1.85;;;;;39.00;101585.00;;;;5027983;28;20669;-77
2022/07/19 10:35:22;;;;;;;1.63;1.52;;;;;39.00;101593.00;;;;5027066;28;20198;-77
2022/07/19 10:37:51;;;;;;;2.92;2.08;;;;;39.10;101594.00;;;;5027937;28;20628;-77
2022/07/19 10:40:41;;;;;;;2.30;1.60;;;;;39.10;101589.00;;;;5042130;28;20234;-75
2022/07/19 10:43:10;;;;;;;2.15;1.30;;;;;39.20;101581.00;;;;5047798;28;20195;-74
2022/07/19 10:45:40;;;;;;;2.13;1.65;;;;;39.30;101586.00;;;;5047120;28;20990;-75
2022/07/19 10:48:16;;;;;;;1.73;1.63;;;;;39.40;101579.00;;;;5046930;28;20199;-74
2022/07/19 10:50:53;;;;;;;4.43;1.40;;;;;39.40;101580.00;;;;5038747;28;20207;-77
2022/07/19 10:53:54;;;;;;;3.40;1.50;;;;;39.50;101582.00;;;;5035797;28;20195;-77
2022/07/19 10:56:24;;;;;;;2.80;1.98;;;;;39.70;101580.00;;;;5046012;28;20299;-77
2022/07/19 10:58:53;;;;;;;3.08;2.20;;;;;39.80;101574.00;;;;5047821;28;20685;-77
2022/07/19 11:01:22;;;;;;;2.03;1.83;;;;;39.80;101582.00;;;;5043991;28;20188;-77
2022/07/19 11:03:51;;;;;;;2.17;1.88;;;;;39.90;101580.00;;;;5043646;28;20203;-77
2022/07/19 11:06:25;;;;;;;2.33;1.73;;;;;39.80;101580.00;;;;5031319;28;20674;-77
2022/07/19 11:08:57;;;;;;;2.10;1.77;;;;;39.90;101573.00;;;;5033651;28;20217;-77
2022/07/19 11:11:26;;;;;;;4.75;1.73;;;;;39.90;101573.00;;;;5050356;28;20202;-75
2022/07/19 11:13:57;;;;;;;3.17;1.70;;;;;40.00;101567.00;;;;5050869;28;20210;-75
2022/07/19 11:16:26;;;;;;;3.33;1.50;;;;;40.00;101568.00;;;;5048409;28;20219;-75
2022/07/19 11:19:03;;;;;;;14.93;2.10;;;;;40.00;101560.00;;;;5042381;28;20210;-76
2022/07/19 11:21:34;;;;;;;3.95;1.77;;;;;40.10;101557.00;;;;5041255;28;20662;-77
2022/07/19 11:24:04;;;;;;;1.90;1.50;;;;;40.20;101544.00;;;;5031298;28;20204;-77
2022/07/19 11:26:37;;;;;;;3.55;1.55;;;;;40.20;101546.00;;;;5030557;28;20200;-76
2022/07/19 11:29:05;;;;;;;2.00;1.80;;;;;40.30;101548.00;;;;5030773;28;20253;-76
2022/07/19 11:31:32;;;;;;;3.13;1.40;;;;;40.30;101542.00;;;;5030228;28;20215;-77
2022/07/19 11:34:01;;;;;;;2.85;1.65;;;;;40.40;101545.00;;;;5031475;28;20187;-76
2022/07/19 11:36:29;;;;;;;4.45;1.73;;;;;40.40;101542.00;;;;5030346;28;20199;-76
2022/07/19 11:38:59;;;;;;;1.88;1.40;;;;;40.40;101548.00;;;;5035773;28;20872;-77
2022/07/19 11:41:30;;;;;;;1.67;1.42;;;;;40.50;101545.00;;;;5042215;28;20286;-77
2022/07/19 11:43:59;;;;;;;1.63;1.25;;;;;40.50;101545.00;;;;5039750;28;20611;-77
2022/07/19 11:46:29;;;;;;;1.30;1.20;;;;;40.50;101538.00;;;;5029892;28;20212;-77
2022/07/19 11:48:57;;;;;;;2.78;1.73;;;;;40.50;101538.00;;;;5031172;28;20574;-75
2022/07/19 11:51:25;;;;;;;2.75;1.38;;;;;40.60;101532.00;;;;5030368;28;20195;-75
2022/07/19 11:53:54;;;;;;;1.65;1.30;;;;;40.60;101532.00;;;;5030458;28;21066;-75
2022/07/19 11:56:25;;;;;;;1.60;1.50;;;;;40.60;101534.00;;;;5029860;28;20227;-76
2022/07/19 11:58:53;;;;;;;2.80;1.92;;;;;40.60;101527.00;;;;5030917;28;20192;-75
2022/07/19 12:01:26;;;;;;;2.85;1.60;;;;;40.60;101527.00;;;;5030267;28;20214;-75
2022/07/19 12:04:00;;;;;;;4.82;1.58;;;;;40.60;101522.00;;;;5030870;28;20750;-75
2022/07/19 12:06:37;;;;;;;1.98;1.48;;;;;40.60;101522.00;;;;5030325;28;20287;-75
2022/07/19 12:09:06;;;;;;;2.53;1.70;;;;;40.70;101526.00;;;;5036664;28;20207;-75
2022/07/19 12:11:41;;;;;;;2.10;1.83;;;;;40.70;101523.00;;;;5030746;28;20265;-76
2022/07/19 12:14:20;;;;;;;2.20;1.75;;;;;40.70;101518.00;;;;5029869;28;20198;-76
2022/07/19 12:16:48;;;;;;;5.30;1.88;;;;;40.80;101512.00;;;;5031982;28;20207;-75
2022/07/19 12:19:17;;;;;;;3.13;2.45;;;;;40.80;101511.00;;;;5037444;28;20713;-76
2022/07/19 12:21:45;;;;;;;2.58;1.83;;;;;40.80;101511.00;;;;5029812;28;20242;-76
2022/07/19 12:24:15;;;;;;;4.13;2.35;;;;;40.90;101509.00;;;;5030604;28;20200;-76
2022/07/19 12:26:54;;;;;;;3.92;1.80;;;;;40.90;101506.00;;;;5030214;28;20681;-75